createdAt,value
2018-07-23T00:00:13.979Z,10.10
2018-07-23T00:01:13.968Z,10.40
2018-07-23T00:02:22.121Z,9.90
2018-07-23T00:03:22.169Z,9.80
2018-07-23T00:04:22.462Z,9.80
2018-07-23T00:05:13.923Z,10.30
2018-07-23T00:06:13.910Z,9.70
2018-07-23T00:07:13.898Z,10.30
2018-07-23T00:08:13.890Z,9.20
2018-07-23T00:09:13.948Z,9.80
2018-07-23T00:10:13.868Z,9.50
2018-07-23T00:11:21.973Z,8.90
2018-07-23T00:12:22.493Z,9.00
2018-07-23T00:13:21.981Z,8.70
2018-07-23T00:14:57.094Z,9.50
2018-07-23T00:15:13.810Z,8.40
2018-07-23T00:16:13.804Z,8.90
2018-07-23T00:17:13.796Z,8.50
2018-07-23T00:18:13.782Z,8.30
2018-07-23T00:19:13.839Z,8.50
2018-07-23T00:20:13.762Z,8.00
2018-07-23T00:21:13.754Z,7.90
2018-07-23T00:22:13.740Z,8.30
2018-07-23T00:23:13.729Z,7.90
2018-07-23T00:24:13.718Z,7.40
2018-07-23T00:25:14.092Z,7.90
2018-07-23T00:26:13.696Z,7.50
2018-07-23T00:27:13.684Z,7.70
2018-07-23T00:28:13.678Z,8.00
2018-07-23T00:29:13.662Z,7.90
2018-07-23T00:30:13.720Z,8.00
2018-07-23T00:31:13.640Z,7.70
2018-07-23T00:32:22.145Z,7.70
2018-07-23T00:33:13.621Z,7.60
2018-07-23T00:34:13.612Z,8.00
2018-07-23T00:35:13.665Z,8.10
2018-07-23T00:36:13.590Z,7.50
2018-07-23T00:37:13.577Z,7.50
2018-07-23T00:38:13.566Z,7.30
2018-07-23T00:39:13.555Z,7.60
2018-07-23T00:40:13.610Z,8.00
2018-07-23T00:41:13.532Z,7.20
2018-07-23T00:42:13.532Z,7.70
2018-07-23T00:43:13.512Z,7.80
2018-07-23T00:44:13.501Z,7.80
2018-07-23T00:45:13.557Z,7.50
2018-07-23T00:46:22.196Z,7.80
2018-07-23T00:47:13.471Z,7.50
2018-07-23T00:48:13.463Z,7.50
2018-07-23T00:49:13.449Z,7.60
2018-07-23T00:50:13.507Z,7.00
2018-07-23T00:51:13.427Z,7.40
2018-07-23T00:52:13.416Z,7.60
2018-07-23T00:53:13.405Z,7.80
2018-07-23T00:54:13.396Z,7.90
2018-07-23T00:55:13.449Z,7.60
2018-07-23T00:56:13.374Z,7.70
2018-07-23T00:57:13.361Z,8.50
2018-07-23T00:58:13.350Z,7.70
2018-07-23T00:59:13.338Z,8.20
2018-07-23T01:00:13.396Z,7.60
2018-07-23T01:01:13.316Z,7.80
2018-07-23T01:02:13.305Z,7.90
2018-07-23T01:03:13.294Z,8.20
2018-07-23T01:04:13.286Z,8.20
2018-07-23T01:05:13.338Z,8.20
2018-07-23T01:06:13.268Z,8.10
2018-07-23T01:07:14.080Z,9.00
2018-07-23T01:08:13.244Z,8.40
2018-07-23T01:09:13.233Z,8.60
2018-07-23T01:10:13.283Z,9.40
2018-07-23T01:11:13.210Z,8.50
2018-07-23T01:12:13.197Z,9.00
2018-07-23T01:13:13.186Z,8.90
2018-07-23T01:14:13.178Z,8.60
2018-07-23T01:15:13.230Z,8.80
2018-07-23T01:16:13.156Z,9.10
2018-07-23T01:17:13.145Z,8.60
2018-07-23T01:18:13.133Z,9.60
2018-07-23T01:19:13.122Z,9.20
2018-07-23T01:20:13.179Z,9.60
2018-07-23T01:21:13.101Z,8.40
2018-07-23T01:22:13.092Z,8.70
2018-07-23T01:23:13.081Z,8.40
2018-07-23T01:24:13.069Z,8.70
2018-07-23T01:25:13.123Z,8.90
2018-07-23T01:26:13.053Z,9.00
2018-07-23T01:27:13.034Z,8.30
2018-07-23T01:28:13.579Z,9.60
2018-07-23T01:29:13.012Z,9.00
2018-07-23T01:30:13.067Z,8.80
2018-07-23T01:31:12.998Z,8.70
2018-07-23T01:32:12.983Z,9.20
2018-07-23T01:33:12.972Z,9.00
2018-07-23T01:34:12.962Z,9.00
2018-07-23T01:35:13.014Z,9.00
2018-07-23T01:36:12.936Z,9.30
2018-07-23T01:37:12.926Z,8.40
2018-07-23T01:38:12.915Z,9.60
2018-07-23T01:39:12.904Z,9.00
2018-07-23T01:40:12.962Z,8.60
2018-07-23T01:41:12.884Z,9.60
2018-07-23T01:42:12.878Z,9.60
2018-07-23T01:43:12.862Z,9.30
2018-07-23T01:44:12.848Z,9.40
2018-07-23T01:45:12.914Z,9.60
2018-07-23T01:46:12.832Z,9.50
2018-07-23T01:47:12.823Z,9.50
2018-07-23T01:48:12.812Z,9.10
2018-07-23T01:49:13.578Z,9.10
2018-07-23T01:50:12.853Z,9.30
2018-07-23T01:51:12.776Z,8.70
2018-07-23T01:52:12.768Z,9.40
2018-07-23T01:53:12.755Z,9.20
2018-07-23T01:54:12.743Z,9.70
2018-07-23T01:55:12.801Z,9.10
2018-07-23T01:56:12.722Z,9.30
2018-07-23T01:57:12.713Z,9.50
2018-07-23T01:58:12.702Z,9.70
2018-07-23T01:59:12.691Z,9.20
2018-07-23T02:00:12.747Z,9.50
2018-07-23T02:01:12.669Z,9.70
2018-07-23T02:02:12.657Z,9.10
2018-07-23T02:03:20.755Z,10.30
2018-07-23T02:04:20.750Z,9.60
2018-07-23T02:05:21.263Z,9.40
2018-07-23T02:06:12.618Z,9.90
2018-07-23T02:07:20.787Z,9.70
2018-07-23T02:08:20.678Z,9.00
2018-07-23T02:09:20.687Z,9.50
2018-07-23T02:10:12.579Z,10.10
2018-07-23T02:11:20.763Z,9.90
2018-07-23T02:12:20.705Z,9.40
2018-07-23T02:13:20.063Z,9.20
2018-07-23T02:14:20.613Z,9.70
2018-07-23T02:15:20.690Z,9.50
2018-07-23T02:16:20.633Z,9.00
2018-07-23T02:17:20.633Z,9.20
2018-07-23T02:18:12.501Z,10.10
2018-07-23T02:19:12.472Z,9.10
2018-07-23T02:20:12.461Z,9.80
2018-07-23T02:21:12.514Z,10.00
2018-07-23T02:22:20.570Z,8.80
2018-07-23T02:23:20.585Z,9.10
2018-07-23T02:24:20.579Z,9.80
2018-07-23T02:25:20.489Z,9.40
2018-07-23T02:26:21.625Z,10.20
2018-07-23T02:27:20.493Z,10.50
2018-07-23T02:28:20.504Z,9.50
2018-07-23T02:29:20.513Z,9.20
2018-07-23T02:30:12.356Z,9.10
2018-07-23T02:31:12.409Z,8.60
2018-07-23T02:32:12.337Z,9.00
2018-07-23T02:33:12.329Z,9.50
2018-07-23T02:34:12.316Z,8.50
2018-07-23T02:35:12.303Z,9.10
2018-07-23T02:36:12.361Z,9.00
2018-07-23T02:37:12.282Z,8.60
2018-07-23T02:38:12.271Z,9.70
2018-07-23T02:39:12.260Z,9.20
2018-07-23T02:40:12.248Z,9.40
2018-07-23T02:41:12.304Z,9.90
2018-07-23T02:42:12.229Z,10.30
2018-07-23T02:43:12.218Z,9.80
2018-07-23T02:44:12.204Z,10.10
2018-07-23T02:45:12.199Z,10.60
2018-07-23T02:46:12.416Z,9.90
2018-07-23T02:47:12.192Z,11.00
2018-07-23T02:48:12.165Z,9.30
2018-07-23T02:49:12.150Z,10.00
2018-07-23T02:50:12.838Z,9.70
2018-07-23T02:51:12.196Z,8.60
2018-07-23T02:52:12.117Z,9.70
2018-07-23T02:53:12.108Z,9.50
2018-07-23T02:54:12.094Z,10.40
2018-07-23T02:55:12.083Z,8.90
2018-07-23T02:56:12.139Z,9.20
2018-07-23T02:57:12.063Z,9.80
2018-07-23T02:58:12.052Z,10.00
2018-07-23T02:59:12.041Z,10.70
2018-07-23T03:00:12.031Z,9.90
2018-07-23T03:01:12.083Z,9.10
2018-07-23T03:02:12.007Z,10.40
2018-07-23T03:03:11.997Z,9.70
2018-07-23T03:04:11.986Z,10.00
2018-07-23T03:05:11.977Z,9.90
2018-07-23T03:06:12.041Z,10.80
2018-07-23T03:07:11.956Z,10.70
2018-07-23T03:08:11.941Z,10.70
2018-07-23T03:09:11.933Z,10.30
2018-07-23T03:10:11.928Z,10.90
2018-07-23T03:11:12.416Z,11.20
2018-07-23T03:12:11.902Z,11.80
2018-07-23T03:13:11.890Z,10.50
2018-07-23T03:14:11.878Z,11.50
2018-07-23T03:15:11.867Z,10.80
2018-07-23T03:16:11.922Z,11.20
2018-07-23T03:17:11.850Z,10.40
2018-07-23T03:18:11.831Z,12.10
2018-07-23T03:19:11.823Z,11.70
2018-07-23T03:20:11.813Z,11.90
2018-07-23T03:21:11.876Z,10.10
2018-07-23T03:22:11.789Z,9.50
2018-07-23T03:23:11.781Z,10.50
2018-07-23T03:24:11.768Z,12.10
2018-07-23T03:25:11.759Z,10.80
2018-07-23T03:26:11.812Z,10.30
2018-07-23T03:27:11.737Z,10.40
2018-07-23T03:28:11.722Z,10.50
2018-07-23T03:29:11.717Z,10.50
2018-07-23T03:30:11.705Z,10.40
2018-07-23T03:31:11.756Z,10.20
2018-07-23T03:32:12.334Z,11.00
2018-07-23T03:33:11.668Z,9.60
2018-07-23T03:34:11.657Z,10.60
2018-07-23T03:35:11.649Z,10.30
2018-07-23T03:36:11.709Z,10.50
2018-07-23T03:37:11.623Z,10.80
2018-07-23T03:38:11.613Z,10.90
2018-07-23T03:39:11.601Z,10.80
2018-07-23T03:40:11.594Z,10.50
2018-07-23T03:41:11.648Z,11.10
2018-07-23T03:42:11.573Z,10.40
2018-07-23T03:43:11.557Z,11.60
2018-07-23T03:44:11.549Z,11.20
2018-07-23T03:45:11.538Z,11.80
2018-07-23T03:46:11.601Z,11.40
2018-07-23T03:47:11.516Z,11.40
2018-07-23T03:48:11.509Z,11.20
2018-07-23T03:49:11.496Z,10.80
2018-07-23T03:50:11.483Z,11.00
2018-07-23T03:51:11.540Z,10.50
2018-07-23T03:52:11.529Z,11.30
2018-07-23T03:53:12.333Z,10.30
2018-07-23T03:54:19.628Z,10.60
2018-07-23T03:55:19.531Z,11.20
2018-07-23T03:56:19.607Z,10.60
2018-07-23T03:57:19.540Z,10.20
2018-07-23T03:58:19.551Z,10.90
2018-07-23T03:59:12.006Z,13.00
2018-07-23T04:00:12.006Z,10.50
2018-07-23T04:01:11.364Z,10.90
2018-07-23T04:02:11.422Z,10.80
2018-07-23T04:03:19.475Z,11.20
2018-07-23T04:04:19.501Z,12.10
2018-07-23T04:05:19.504Z,10.80
2018-07-23T04:06:22.220Z,11.20
2018-07-23T04:07:19.409Z,10.10
2018-07-23T04:08:11.291Z,11.30
2018-07-23T04:09:11.275Z,11.30
2018-07-23T04:10:11.265Z,10.80
2018-07-23T04:11:11.259Z,11.20
2018-07-23T04:12:11.311Z,11.60
2018-07-23T04:13:11.235Z,11.10
2018-07-23T04:14:11.223Z,10.80
2018-07-23T04:15:11.212Z,11.90
2018-07-23T04:16:11.202Z,10.80
2018-07-23T04:17:11.270Z,11.80
2018-07-23T04:18:12.167Z,10.80
2018-07-23T04:19:11.173Z,11.20
2018-07-23T04:20:11.159Z,11.40
2018-07-23T04:21:11.148Z,10.50
2018-07-23T04:22:11.214Z,11.80
2018-07-23T04:23:11.129Z,12.80
2018-07-23T04:24:11.118Z,10.90
2018-07-23T04:25:11.105Z,10.30
2018-07-23T04:26:11.093Z,10.90
2018-07-23T04:27:11.243Z,10.40
2018-07-23T04:28:11.073Z,11.40
2018-07-23T04:29:11.063Z,13.10
2018-07-23T04:30:11.051Z,12.00
2018-07-23T04:31:11.041Z,12.70
2018-07-23T04:32:11.097Z,13.40
2018-07-23T04:33:11.018Z,13.80
2018-07-23T04:34:11.020Z,13.10
2018-07-23T04:35:10.997Z,12.00
2018-07-23T04:36:10.987Z,11.80
2018-07-23T04:37:11.040Z,13.60
2018-07-23T04:38:10.969Z,11.60
2018-07-23T04:39:11.667Z,10.70
2018-07-23T04:40:10.942Z,13.90
2018-07-23T04:41:10.939Z,13.00
2018-07-23T04:42:10.985Z,10.50
2018-07-23T04:43:10.907Z,11.70
2018-07-23T04:44:10.939Z,12.30
2018-07-23T04:45:10.976Z,13.40
2018-07-23T04:46:10.898Z,14.20
2018-07-23T04:47:10.940Z,11.30
2018-07-23T04:48:10.855Z,12.20
2018-07-23T04:49:10.847Z,11.30
2018-07-23T04:50:10.865Z,12.90
2018-07-23T04:51:10.824Z,11.40
2018-07-23T04:52:10.874Z,12.70
2018-07-23T04:53:10.805Z,12.00
2018-07-23T04:54:10.795Z,13.10
2018-07-23T04:55:10.779Z,12.20
2018-07-23T04:56:10.766Z,12.80
2018-07-23T04:57:10.824Z,14.60
2018-07-23T04:58:10.744Z,11.60
2018-07-23T04:59:10.737Z,11.50
2018-07-23T05:00:11.671Z,10.60
2018-07-23T05:01:10.714Z,11.30
2018-07-23T05:02:10.771Z,12.90
2018-07-23T05:03:10.692Z,13.50
2018-07-23T05:04:10.681Z,12.50
2018-07-23T05:05:10.671Z,12.30
2018-07-23T05:06:10.658Z,12.70
2018-07-23T05:07:10.725Z,14.90
2018-07-23T05:08:10.639Z,14.30
2018-07-23T05:09:10.625Z,13.00
2018-07-23T05:10:10.617Z,12.70
2018-07-23T05:11:10.608Z,13.00
2018-07-23T05:12:10.661Z,13.00
2018-07-23T05:13:10.587Z,13.60
2018-07-23T05:14:10.578Z,14.70
2018-07-23T05:15:10.567Z,16.30
2018-07-23T05:16:10.553Z,15.00
2018-07-23T05:17:10.611Z,14.50
2018-07-23T05:18:10.528Z,15.40
2018-07-23T05:19:10.517Z,11.70
2018-07-23T05:20:10.513Z,11.70
2018-07-23T05:21:11.165Z,12.30
2018-07-23T05:22:10.555Z,13.10
2018-07-23T05:23:10.543Z,9.70
2018-07-23T05:24:10.473Z,10.70
2018-07-23T05:25:10.454Z,14.80
2018-07-23T05:26:11.194Z,13.50
2018-07-23T05:27:10.434Z,13.80
2018-07-23T05:28:10.502Z,13.00
2018-07-23T05:29:10.410Z,15.10
2018-07-23T05:30:10.401Z,13.30
2018-07-23T05:31:10.390Z,14.20
2018-07-23T05:32:10.382Z,15.10
2018-07-23T05:33:10.437Z,16.10
2018-07-23T05:34:10.354Z,15.20
2018-07-23T05:35:10.353Z,15.70
2018-07-23T05:36:10.359Z,15.90
2018-07-23T05:37:10.326Z,15.30
2018-07-23T05:38:10.382Z,12.90
2018-07-23T05:39:10.301Z,15.00
2018-07-23T05:40:10.296Z,12.10
2018-07-23T05:41:10.280Z,13.40
2018-07-23T05:42:13.162Z,14.60
2018-07-23T05:43:10.334Z,13.00
2018-07-23T05:44:10.253Z,15.20
2018-07-23T05:45:10.250Z,15.30
2018-07-23T05:46:10.250Z,16.40
2018-07-23T05:47:10.215Z,15.40
2018-07-23T05:48:10.270Z,14.80
2018-07-23T05:49:10.195Z,16.50
2018-07-23T05:50:10.185Z,16.00
2018-07-23T05:51:10.174Z,15.50
2018-07-23T05:52:10.170Z,13.00
2018-07-23T05:53:10.220Z,14.20
2018-07-23T05:54:10.141Z,15.00
2018-07-23T05:55:10.138Z,12.00
2018-07-23T05:56:10.126Z,17.40
2018-07-23T05:57:10.111Z,14.20
2018-07-23T05:58:10.162Z,14.60
2018-07-23T05:59:10.102Z,14.70
2018-07-23T06:00:10.077Z,16.00
2018-07-23T06:01:10.063Z,15.20
2018-07-23T06:02:10.054Z,12.50
2018-07-23T06:03:10.239Z,12.00
2018-07-23T06:04:10.040Z,11.70
2018-07-23T06:05:10.021Z,12.20
2018-07-23T06:06:10.034Z,13.70
2018-07-23T06:07:09.999Z,12.00
2018-07-23T06:08:10.054Z,13.70
2018-07-23T06:09:09.980Z,12.60
2018-07-23T06:10:09.971Z,12.40
2018-07-23T06:11:09.958Z,14.50
2018-07-23T06:12:09.952Z,16.20
2018-07-23T06:13:10.065Z,16.20
2018-07-23T06:14:09.935Z,16.10
2018-07-23T06:15:09.929Z,16.00
2018-07-23T06:16:09.910Z,15.00
2018-07-23T06:17:09.897Z,12.60
2018-07-23T06:18:09.960Z,13.40
2018-07-23T06:19:09.872Z,17.10
2018-07-23T06:20:09.861Z,17.00
2018-07-23T06:21:09.852Z,13.70
2018-07-23T06:22:09.839Z,11.40
2018-07-23T06:23:09.907Z,14.50
2018-07-23T06:24:10.659Z,16.90
2018-07-23T06:25:09.810Z,18.20
2018-07-23T06:26:09.797Z,15.90
2018-07-23T06:27:09.787Z,17.30
2018-07-23T06:28:10.236Z,17.00
2018-07-23T06:29:09.765Z,14.50
2018-07-23T06:30:09.831Z,13.60
2018-07-23T06:31:09.748Z,13.60
2018-07-23T06:32:09.732Z,12.90
2018-07-23T06:33:09.788Z,12.10
2018-07-23T06:34:09.730Z,16.10
2018-07-23T06:35:09.702Z,15.10
2018-07-23T06:36:09.705Z,15.20
2018-07-23T06:37:09.681Z,19.80
2018-07-23T06:38:09.733Z,17.10
2018-07-23T06:39:09.656Z,15.10
2018-07-23T06:40:09.645Z,12.70
2018-07-23T06:41:09.652Z,15.60
2018-07-23T06:42:09.628Z,19.10
2018-07-23T06:43:09.687Z,16.50
2018-07-23T06:44:09.629Z,17.80
2018-07-23T06:45:10.170Z,16.30
2018-07-23T06:46:09.605Z,18.40
2018-07-23T06:47:09.583Z,16.50
2018-07-23T06:48:09.567Z,16.30
2018-07-23T06:49:09.627Z,14.60
2018-07-23T06:50:09.544Z,16.40
2018-07-23T06:51:09.531Z,16.00
2018-07-23T06:52:09.528Z,16.70
2018-07-23T06:53:09.515Z,17.40
2018-07-23T06:54:09.629Z,19.60
2018-07-23T06:55:09.490Z,16.30
2018-07-23T06:56:09.478Z,17.10
2018-07-23T06:57:09.467Z,15.80
2018-07-23T06:58:09.459Z,13.00
2018-07-23T06:59:09.516Z,12.60
2018-07-23T07:00:09.436Z,17.30
2018-07-23T07:01:09.426Z,17.80
2018-07-23T07:02:09.412Z,14.20
2018-07-23T07:03:09.458Z,13.70
2018-07-23T07:04:09.488Z,14.70
2018-07-23T07:05:09.387Z,12.60
2018-07-23T07:06:10.160Z,16.00
2018-07-23T07:07:09.386Z,14.80
2018-07-23T07:08:09.361Z,14.90
2018-07-23T07:09:09.409Z,13.00
2018-07-23T07:10:09.331Z,17.40
2018-07-23T07:11:09.323Z,15.40
2018-07-23T07:12:09.312Z,16.60
2018-07-23T07:13:09.317Z,18.00
2018-07-23T07:14:09.355Z,14.20
2018-07-23T07:15:09.296Z,14.20
2018-07-23T07:16:09.275Z,15.70
2018-07-23T07:17:09.272Z,13.40
2018-07-23T07:18:09.690Z,14.90
2018-07-23T07:19:09.311Z,15.00
2018-07-23T07:20:10.959Z,17.00
2018-07-23T07:21:09.223Z,18.20
2018-07-23T07:22:09.211Z,18.10
2018-07-23T07:23:09.230Z,17.80
2018-07-23T07:24:09.678Z,17.30
2018-07-23T07:25:09.388Z,15.60
2018-07-23T07:26:09.170Z,17.00
2018-07-23T07:27:09.687Z,16.70
2018-07-23T07:28:09.151Z,16.30
2018-07-23T07:29:09.206Z,16.10
2018-07-23T07:30:09.132Z,16.00
2018-07-23T07:31:09.123Z,17.40
2018-07-23T07:32:09.112Z,14.70
2018-07-23T07:33:09.111Z,14.70
2018-07-23T07:34:09.156Z,16.00
2018-07-23T07:35:09.081Z,17.40
2018-07-23T07:36:09.139Z,14.50
2018-07-23T07:37:09.082Z,16.30
2018-07-23T07:38:09.110Z,16.10
2018-07-23T07:39:09.114Z,15.20
2018-07-23T07:40:09.033Z,17.10
2018-07-23T07:41:16.634Z,17.40
2018-07-23T07:42:17.213Z,17.30
2018-07-23T07:43:09.009Z,15.20
2018-07-23T07:44:09.072Z,14.40
2018-07-23T07:45:08.979Z,13.10
2018-07-23T07:46:08.968Z,13.60
2018-07-23T07:47:08.960Z,15.70
2018-07-23T07:48:08.975Z,15.60
2018-07-23T07:49:17.160Z,13.00
2018-07-23T07:50:17.576Z,15.20
2018-07-23T07:51:17.083Z,14.40
2018-07-23T07:52:08.917Z,14.50
2018-07-23T07:53:08.898Z,15.10
2018-07-23T07:54:08.972Z,15.50
2018-07-23T07:55:08.876Z,14.80
2018-07-23T07:56:08.868Z,13.60
2018-07-23T07:57:08.920Z,13.90
2018-07-23T07:58:08.851Z,14.20
2018-07-23T07:59:08.914Z,15.50
2018-07-23T08:00:08.826Z,15.00
2018-07-23T08:01:08.859Z,13.10
2018-07-23T08:02:08.804Z,13.80
2018-07-23T08:03:08.796Z,15.20
2018-07-23T08:04:08.849Z,15.60
2018-07-23T08:05:08.771Z,14.10
2018-07-23T08:06:08.763Z,12.50
2018-07-23T08:07:08.803Z,14.40
2018-07-23T08:08:08.743Z,14.30
2018-07-23T08:09:08.807Z,16.70
2018-07-23T08:10:08.721Z,15.60
2018-07-23T08:11:08.739Z,16.70
2018-07-23T08:12:09.354Z,13.40
2018-07-23T08:13:08.688Z,13.90
2018-07-23T08:14:08.749Z,14.20
2018-07-23T08:15:08.669Z,14.90
2018-07-23T08:16:08.666Z,15.70
2018-07-23T08:17:08.649Z,14.00
2018-07-23T08:18:08.639Z,12.20
2018-07-23T08:19:08.699Z,12.90
2018-07-23T08:20:08.624Z,14.50
2018-07-23T08:21:08.615Z,15.60
2018-07-23T08:22:08.596Z,12.40
2018-07-23T08:23:08.591Z,12.80
2018-07-23T08:24:08.648Z,14.20
2018-07-23T08:25:08.638Z,15.80
2018-07-23T08:26:08.563Z,14.10
2018-07-23T08:27:08.547Z,14.10
2018-07-23T08:28:08.538Z,13.20
2018-07-23T08:29:08.530Z,13.30
2018-07-23T08:30:08.582Z,13.80
2018-07-23T08:31:08.508Z,13.50
2018-07-23T08:32:08.616Z,13.00
2018-07-23T08:33:09.349Z,14.00
2018-07-23T08:34:08.478Z,12.60
2018-07-23T08:35:08.530Z,13.70
2018-07-23T08:36:08.461Z,12.90
2018-07-23T08:37:08.499Z,12.40
2018-07-23T08:38:08.435Z,13.20
2018-07-23T08:39:08.427Z,13.40
2018-07-23T08:40:08.479Z,14.40
2018-07-23T08:41:08.402Z,13.40
2018-07-23T08:42:08.393Z,13.50
2018-07-23T08:43:08.427Z,13.50
2018-07-23T08:44:08.374Z,14.40
2018-07-23T08:45:08.430Z,11.80
2018-07-23T08:46:08.357Z,15.80
2018-07-23T08:47:08.344Z,13.10
2018-07-23T08:48:08.333Z,12.90
2018-07-23T08:49:08.321Z,12.50
2018-07-23T08:50:08.385Z,13.70
2018-07-23T08:51:08.303Z,14.90
2018-07-23T08:52:08.294Z,15.70
2018-07-23T08:53:08.281Z,15.10
2018-07-23T08:54:08.852Z,12.50
2018-07-23T08:55:08.326Z,13.70
2018-07-23T08:56:08.293Z,12.30
2018-07-23T08:57:08.247Z,15.60
2018-07-23T08:58:08.233Z,13.40
2018-07-23T08:59:08.222Z,13.00
2018-07-23T09:00:08.279Z,13.50
2018-07-23T09:01:08.202Z,14.30
2018-07-23T09:02:08.191Z,16.00
2018-07-23T09:03:08.188Z,13.70
2018-07-23T09:04:08.177Z,13.90
2018-07-23T09:05:08.232Z,13.70
2018-07-23T09:06:08.178Z,14.60
2018-07-23T09:07:08.147Z,14.80
2018-07-23T09:08:08.138Z,16.60
2018-07-23T09:09:08.136Z,19.20
2018-07-23T09:10:08.186Z,17.40
2018-07-23T09:11:08.119Z,17.50
2018-07-23T09:12:08.105Z,17.40
2018-07-23T09:13:08.104Z,16.90
2018-07-23T09:14:08.085Z,17.40
2018-07-23T09:15:08.430Z,16.90
2018-07-23T09:16:08.066Z,17.40
2018-07-23T09:17:08.095Z,17.60
2018-07-23T09:18:08.052Z,17.60
2018-07-23T09:19:08.041Z,17.80
2018-07-23T09:20:08.101Z,17.70
2018-07-23T09:21:08.030Z,18.00
2018-07-23T09:22:08.070Z,16.40
2018-07-23T09:23:08.013Z,18.00
2018-07-23T09:24:08.001Z,17.30
2018-07-23T09:25:08.057Z,18.60
2018-07-23T09:26:07.987Z,18.80
2018-07-23T09:27:07.978Z,18.80
2018-07-23T09:28:07.968Z,19.50
2018-07-23T09:29:07.959Z,17.80
2018-07-23T09:30:08.018Z,18.00
2018-07-23T09:31:07.962Z,18.80
2018-07-23T09:32:07.934Z,17.60
2018-07-23T09:33:07.926Z,21.10
2018-07-23T09:34:07.920Z,19.90
2018-07-23T09:35:07.975Z,22.90
2018-07-23T09:36:08.856Z,20.00
2018-07-23T09:37:07.920Z,19.90
2018-07-23T09:38:07.887Z,19.20
2018-07-23T09:39:07.883Z,19.50
2018-07-23T09:40:07.938Z,21.10
2018-07-23T09:41:07.866Z,21.20
2018-07-23T09:42:07.860Z,19.40
2018-07-23T09:43:07.849Z,18.30
2018-07-23T09:44:07.844Z,19.90
2018-07-23T09:45:07.939Z,20.50
2018-07-23T09:46:07.858Z,19.30
2018-07-23T09:47:07.843Z,20.70
2018-07-23T09:48:07.811Z,21.00
2018-07-23T09:49:08.348Z,21.20
2018-07-23T09:50:07.873Z,21.50
2018-07-23T09:51:07.790Z,20.50
2018-07-23T09:52:07.784Z,20.60
2018-07-23T09:53:07.773Z,20.50
2018-07-23T09:54:07.767Z,20.10
2018-07-23T09:55:07.831Z,20.10
2018-07-23T09:56:07.756Z,20.60
2018-07-23T09:57:08.346Z,21.60
2018-07-23T09:58:07.758Z,23.20
2018-07-23T09:59:07.734Z,21.30
2018-07-23T10:00:07.794Z,20.50
2018-07-23T10:01:07.717Z,20.30
2018-07-23T10:02:07.712Z,18.60
2018-07-23T10:03:07.734Z,18.30
2018-07-23T10:04:07.801Z,20.10
2018-07-23T10:05:07.757Z,18.10
2018-07-23T10:06:07.682Z,17.10
2018-07-23T10:07:07.669Z,17.00
2018-07-23T10:08:07.661Z,16.90
2018-07-23T10:09:07.654Z,17.00
2018-07-23T10:10:07.646Z,16.90
2018-07-23T10:11:07.721Z,16.20
2018-07-23T10:12:08.342Z,14.90
2018-07-23T10:13:07.661Z,14.90
2018-07-23T10:14:07.612Z,14.20
2018-07-23T10:15:07.601Z,15.80
2018-07-23T10:16:07.690Z,14.80
2018-07-23T10:17:07.588Z,15.00
2018-07-23T10:18:08.342Z,14.70
2018-07-23T10:19:07.570Z,15.00
2018-07-23T10:20:07.565Z,16.20
2018-07-23T10:21:07.620Z,15.90
2018-07-23T10:22:07.580Z,16.30
2018-07-23T10:23:07.537Z,16.60
2018-07-23T10:24:07.529Z,15.10
2018-07-23T10:25:07.543Z,15.40
2018-07-23T10:26:07.580Z,17.40
2018-07-23T10:27:07.511Z,17.20
2018-07-23T10:28:07.519Z,17.40
2018-07-23T10:29:07.491Z,17.00
2018-07-23T10:30:07.483Z,17.50
2018-07-23T10:31:07.549Z,17.20
2018-07-23T10:32:07.477Z,17.20
2018-07-23T10:33:07.461Z,17.70
2018-07-23T10:34:07.462Z,17.00
2018-07-23T10:35:07.495Z,17.00
2018-07-23T10:36:07.505Z,16.70
2018-07-23T10:37:07.433Z,15.40
2018-07-23T10:38:07.423Z,14.90
2018-07-23T10:39:08.338Z,14.30
2018-07-23T10:40:07.431Z,14.10
2018-07-23T10:41:07.522Z,14.20
2018-07-23T10:42:07.443Z,13.60
2018-07-23T10:43:07.379Z,13.30
2018-07-23T10:44:07.370Z,13.60
2018-07-23T10:45:07.373Z,13.20
2018-07-23T10:46:07.420Z,13.60
2018-07-23T10:47:07.349Z,13.50
2018-07-23T10:48:07.335Z,13.30
2018-07-23T10:49:07.329Z,13.10
2018-07-23T10:50:07.318Z,14.00
2018-07-23T10:51:07.421Z,14.10
2018-07-23T10:52:07.309Z,13.50
2018-07-23T10:53:07.293Z,13.60
2018-07-23T10:54:07.290Z,13.60
2018-07-23T10:55:07.276Z,13.80
2018-07-23T10:56:07.336Z,13.20
2018-07-23T10:57:07.270Z,14.30
2018-07-23T10:58:07.251Z,13.50
2018-07-23T10:59:07.242Z,13.80
2018-07-23T11:00:07.838Z,13.60
2018-07-23T11:01:07.289Z,14.70
2018-07-23T11:02:07.215Z,13.10
2018-07-23T11:03:07.208Z,13.70
2018-07-23T11:04:07.235Z,12.50
2018-07-23T11:05:07.189Z,12.80
2018-07-23T11:06:07.247Z,12.00
2018-07-23T11:07:07.180Z,12.50
2018-07-23T11:08:07.167Z,12.30
2018-07-23T11:09:07.161Z,12.00
2018-07-23T11:10:07.149Z,12.00
2018-07-23T11:11:07.840Z,11.80
2018-07-23T11:12:07.131Z,11.40
2018-07-23T11:13:07.116Z,11.30
2018-07-23T11:14:07.177Z,10.70
2018-07-23T11:15:07.121Z,10.30
2018-07-23T11:16:07.155Z,10.50
2018-07-23T11:17:07.086Z,10.00
2018-07-23T11:18:07.069Z,10.10
2018-07-23T11:19:07.069Z,9.80
2018-07-23T11:20:07.069Z,9.50
2018-07-23T11:21:07.413Z,9.90
2018-07-23T11:22:07.054Z,9.70
2018-07-23T11:23:07.062Z,9.00
2018-07-23T11:24:07.076Z,9.40
2018-07-23T11:25:38.416Z,9.40
2018-07-23T11:26:07.065Z,9.20
2018-07-23T11:27:15.100Z,9.10
2018-07-23T11:28:15.095Z,9.30
2018-07-23T11:29:15.105Z,9.60
2018-07-23T11:30:15.104Z,9.80
2018-07-23T11:31:07.019Z,9.40
2018-07-23T11:32:06.959Z,10.40
2018-07-23T11:33:06.933Z,10.50
2018-07-23T11:34:06.937Z,10.50
2018-07-23T11:35:15.041Z,11.50
2018-07-23T11:36:15.618Z,11.60
2018-07-23T11:37:06.897Z,11.90
2018-07-23T11:38:06.889Z,11.40
2018-07-23T11:39:06.883Z,11.30
2018-07-23T11:40:06.873Z,12.40
2018-07-23T11:41:06.929Z,12.90
2018-07-23T11:42:06.871Z,13.00
2018-07-23T11:43:06.849Z,15.10
2018-07-23T11:44:06.841Z,14.70
2018-07-23T11:45:06.838Z,15.80
2018-07-23T11:46:06.911Z,17.40
2018-07-23T11:47:06.868Z,16.80
2018-07-23T11:48:06.807Z,17.50
2018-07-23T11:49:06.887Z,17.20
2018-07-23T11:50:06.899Z,17.00
2018-07-23T11:51:06.896Z,16.00
2018-07-23T11:52:14.353Z,15.50
2018-07-23T11:53:06.773Z,14.30
2018-07-23T11:54:06.756Z,13.40
2018-07-23T11:55:06.751Z,14.30
2018-07-23T11:56:06.824Z,13.60
2018-07-23T11:57:07.569Z,14.10
2018-07-23T11:58:06.723Z,13.90
2018-07-23T11:59:06.720Z,12.90
2018-07-23T12:00:06.709Z,12.20
2018-07-23T12:01:06.716Z,12.40
2018-07-23T12:02:06.753Z,12.50
2018-07-23T12:03:06.684Z,11.80
2018-07-23T12:04:10.408Z,12.20
2018-07-23T12:05:06.659Z,12.30
2018-07-23T12:06:06.716Z,12.30
2018-07-23T12:07:06.710Z,11.30
2018-07-23T12:08:06.637Z,11.10
2018-07-23T12:09:06.623Z,10.90
2018-07-23T12:10:06.633Z,10.30
2018-07-23T12:11:06.603Z,10.50
2018-07-23T12:12:06.656Z,9.20
2018-07-23T12:13:06.584Z,10.70
2018-07-23T12:14:06.575Z,11.50
2018-07-23T12:15:06.564Z,11.50
2018-07-23T12:16:06.561Z,12.40
2018-07-23T12:17:06.616Z,12.10
2018-07-23T12:18:07.045Z,12.70
2018-07-23T12:19:06.533Z,12.50
2018-07-23T12:20:06.559Z,12.90
2018-07-23T12:21:06.530Z,13.10
2018-07-23T12:22:06.571Z,13.40
2018-07-23T12:23:06.505Z,13.10
2018-07-23T12:24:06.494Z,14.10
2018-07-23T12:25:06.485Z,15.30
2018-07-23T12:26:06.509Z,14.90
2018-07-23T12:27:06.529Z,16.20
2018-07-23T12:28:06.460Z,15.60
2018-07-23T12:29:06.476Z,16.00
2018-07-23T12:30:07.048Z,16.10
2018-07-23T12:31:06.440Z,16.10
2018-07-23T12:32:06.492Z,16.20
2018-07-23T12:33:06.424Z,14.70
2018-07-23T12:34:06.415Z,14.30
2018-07-23T12:35:06.404Z,13.90
2018-07-23T12:36:06.411Z,13.30
2018-07-23T12:37:06.451Z,12.90
2018-07-23T12:38:06.378Z,13.00
2018-07-23T12:39:07.043Z,13.10
2018-07-23T12:40:06.430Z,12.50
2018-07-23T12:41:06.350Z,12.00
2018-07-23T12:42:06.414Z,12.30
2018-07-23T12:43:06.337Z,12.60
2018-07-23T12:44:06.320Z,11.60
2018-07-23T12:45:06.312Z,11.10
2018-07-23T12:46:06.306Z,11.70
2018-07-23T12:47:06.409Z,11.40
2018-07-23T12:48:06.284Z,10.80
2018-07-23T12:49:06.276Z,10.70
2018-07-23T12:50:06.266Z,10.00
2018-07-23T12:51:06.262Z,10.30
2018-07-23T12:52:06.303Z,10.80
2018-07-23T12:53:06.249Z,10.20
2018-07-23T12:54:06.223Z,10.70
2018-07-23T12:55:06.215Z,9.80
2018-07-23T12:56:06.219Z,10.40
2018-07-23T12:57:06.266Z,10.00
2018-07-23T12:58:06.187Z,9.70